sensor_id;sensor_type;location;lat;lon;timestamp;temperature;humidity
7972;DHT22;4031;49.758;6.120;2023-09-08T00:01:25;14.50;99.90
7972;DHT22;4031;49.758;6.120;2023-09-08T00:03:50;14.50;99.90
7972;DHT22;4031;49.758;6.120;2023-09-08T00:06:16;14.50;99.90
7972;DHT22;4031;49.758;6.120;2023-09-08T00:08:42;14.50;99.90
7972;DHT22;4031;49.758;6.120;2023-09-08T00:11:08;14.40;99.90
7972;DHT22;4031;49.758;6.120;2023-09-08T00:13:34;14.40;99.90
7972;DHT22;4031;49.758;6.120;2023-09-08T00:16:00;14.40;99.90
7972;DHT22;4031;49.758;6.120;2023-09-08T00:18:25;14.40;99.90
7972;DHT22;4031;49.758;6.120;2023-09-08T00:20:51;14.40;99.90
7972;DHT22;4031;49.758;6.120;2023-09-08T00:23:17;14.30;99.90
7972;DHT22;4031;49.758;6.120;2023-09-08T00:25:42;14.30;99.90
7972;DHT22;4031;49.758;6.120;2023-09-08T00:28:08;14.20;99.90
7972;DHT22;4031;49.758;6.120;2023-09-08T00:30:34;14.20;99.90
7972;DHT22;4031;49.758;6.120;2023-09-08T00:33:00;14.20;99.90
7972;DHT22;4031;49.758;6.120;2023-09-08T00:35:25;14.10;99.90
7972;DHT22;4031;49.758;6.120;2023-09-08T00:37:51;14.10;99.90
7972;DHT22;4031;49.758;6.120;2023-09-08T00:40:17;14.10;99.90
7972;DHT22;4031;49.758;6.120;2023-09-08T00:42:43;14.10;99.90
7972;DHT22;4031;49.758;6.120;2023-09-08T00:45:09;14.00;99.90
7972;DHT22;4031;49.758;6.120;2023-09-08T00:47:34;14.00;99.90
7972;DHT22;4031;49.758;6.120;2023-09-08T00:50:04;14.00;99.90
7972;DHT22;4031;49.758;6.120;2023-09-08T00:52:31;14.00;99.90
7972;DHT22;4031;49.758;6.120;2023-09-08T00:54:58;14.00;99.90
7972;DHT22;4031;49.758;6.120;2023-09-08T00:57:24;13.90;99.90
7972;DHT22;4031;49.758;6.120;2023-09-08T00:59:50;13.90;99.90
7972;DHT22;4031;49.758;6.120;2023-09-08T01:02:16;13.90;99.90
7972;DHT22;4031;49.758;6.120;2023-09-08T01:04:42;13.90;99.90
7972;DHT22;4031;49.758;6.120;2023-09-08T01:07:09;13.90;99.90
7972;DHT22;4031;49.758;6.120;2023-09-08T01:09:36;13.80;99.90
7972;DHT22;4031;49.758;6.120;2023-09-08T01:12:04;13.80;99.90
7972;DHT22;4031;49.758;6.120;2023-09-08T01:14:30;13.80;99.90
7972;DHT22;4031;49.758;6.120;2023-09-08T01:16:56;13.70;99.90
7972;DHT22;4031;49.758;6.120;2023-09-08T01:19:22;13.70;99.90
7972;DHT22;4031;49.758;6.120;2023-09-08T01:27:12;13.70;99.90
7972;DHT22;4031;49.758;6.120;2023-09-08T01:29:40;13.80;99.90
7972;DHT22;4031;49.758;6.120;2023-09-08T01:32:07;13.80;99.90
7972;DHT22;4031;49.758;6.120;2023-09-08T01:34:34;13.80;99.90
7972;DHT22;4031;49.758;6.120;2023-09-08T01:37:02;13.80;99.90
7972;DHT22;4031;49.758;6.120;2023-09-08T01:39:29;13.80;99.90
7972;DHT22;4031;49.758;6.120;2023-09-08T01:41:55;13.80;99.90
7972;DHT22;4031;49.758;6.120;2023-09-08T01:44:21;13.70;99.90
7972;DHT22;4031;49.758;6.120;2023-09-08T01:46:46;13.70;99.90
7972;DHT22;4031;49.758;6.120;2023-09-08T01:49:12;13.60;99.90
7972;DHT22;4031;49.758;6.120;2023-09-08T01:51:38;13.60;99.90
7972;DHT22;4031;49.758;6.120;2023-09-08T01:54:04;13.50;99.90
7972;DHT22;4031;49.758;6.120;2023-09-08T01:56:29;13.50;99.90
7972;DHT22;4031;49.758;6.120;2023-09-08T01:58:55;13.50;99.90
7972;DHT22;4031;49.758;6.120;2023-09-08T02:01:21;13.50;99.90
7972;DHT22;4031;49.758;6.120;2023-09-08T02:03:46;13.40;99.90
7972;DHT22;4031;49.758;6.120;2023-09-08T02:06:12;13.40;99.90
7972;DHT22;4031;49.758;6.120;2023-09-08T02:08:38;13.40;99.90
7972;DHT22;4031;49.758;6.120;2023-09-08T02:11:03;13.30;99.90
7972;DHT22;4031;49.758;6.120;2023-09-08T02:13:29;13.40;99.90
7972;DHT22;4031;49.758;6.120;2023-09-08T02:15:55;13.40;99.90
7972;DHT22;4031;49.758;6.120;2023-09-08T02:18:20;13.30;99.90
7972;DHT22;4031;49.758;6.120;2023-09-08T02:20:46;13.30;99.90
7972;DHT22;4031;49.758;6.120;2023-09-08T02:23:12;13.30;99.90
7972;DHT22;4031;49.758;6.120;2023-09-08T02:25:37;13.30;99.90
7972;DHT22;4031;49.758;6.120;2023-09-08T02:28:03;13.30;99.90
7972;DHT22;4031;49.758;6.120;2023-09-08T02:30:29;13.20;99.90
7972;DHT22;4031;49.758;6.120;2023-09-08T02:32:55;13.30;99.90
7972;DHT22;4031;49.758;6.120;2023-09-08T02:35:23;13.20;99.90
7972;DHT22;4031;49.758;6.120;2023-09-08T02:37:49;13.20;99.90
7972;DHT22;4031;49.758;6.120;2023-09-08T02:40:14;13.10;99.90
7972;DHT22;4031;49.758;6.120;2023-09-08T02:42:40;13.10;99.90
7972;DHT22;4031;49.758;6.120;2023-09-08T02:45:06;13.10;99.90
7972;DHT22;4031;49.758;6.120;2023-09-08T02:47:32;13.00;99.90
7972;DHT22;4031;49.758;6.120;2023-09-08T02:49:58;13.00;99.90
7972;DHT22;4031;49.758;6.120;2023-09-08T02:52:23;13.00;99.90
7972;DHT22;4031;49.758;6.120;2023-09-08T02:54:49;13.00;99.90
7972;DHT22;4031;49.758;6.120;2023-09-08T02:57:15;12.90;99.90
7972;DHT22;4031;49.758;6.120;2023-09-08T02:59:40;12.90;99.90
7972;DHT22;4031;49.758;6.120;2023-09-08T03:02:06;12.90;99.90
7972;DHT22;4031;49.758;6.120;2023-09-08T03:04:32;12.80;99.90
7972;DHT22;4031;49.758;6.120;2023-09-08T03:06:57;12.80;99.90
7972;DHT22;4031;49.758;6.120;2023-09-08T03:09:23;12.80;99.90
7972;DHT22;4031;49.758;6.120;2023-09-08T03:11:49;12.80;99.90
7972;DHT22;4031;49.758;6.120;2023-09-08T03:14:15;12.70;99.90
7972;DHT22;4031;49.758;6.120;2023-09-08T03:16:40;12.70;99.90
7972;DHT22;4031;49.758;6.120;2023-09-08T03:19:06;12.70;99.90
7972;DHT22;4031;49.758;6.120;2023-09-08T03:21:32;12.70;99.90
7972;DHT22;4031;49.758;6.120;2023-09-08T03:23:58;12.70;99.90
7972;DHT22;4031;49.758;6.120;2023-09-08T03:26:23;12.70;99.90
7972;DHT22;4031;49.758;6.120;2023-09-08T03:28:49;12.70;99.90
7972;DHT22;4031;49.758;6.120;2023-09-08T03:31:15;12.70;99.90
7972;DHT22;4031;49.758;6.120;2023-09-08T03:33:40;12.70;99.90
7972;DHT22;4031;49.758;6.120;2023-09-08T03:36:07;12.70;99.90
7972;DHT22;4031;49.758;6.120;2023-09-08T03:38:33;12.70;99.90
7972;DHT22;4031;49.758;6.120;2023-09-08T03:40:59;12.70;99.90
7972;DHT22;4031;49.758;6.120;2023-09-08T03:43:24;12.70;99.90
7972;DHT22;4031;49.758;6.120;2023-09-08T03:45:50;12.60;99.90
7972;DHT22;4031;49.758;6.120;2023-09-08T03:48:16;12.60;99.90
7972;DHT22;4031;49.758;6.120;2023-09-08T03:50:41;12.60;99.90
7972;DHT22;4031;49.758;6.120;2023-09-08T03:53:10;12.50;99.90
7972;DHT22;4031;49.758;6.120;2023-09-08T03:55:37;12.50;99.90
7972;DHT22;4031;49.758;6.120;2023-09-08T03:58:02;12.60;99.90
7972;DHT22;4031;49.758;6.120;2023-09-08T04:00:28;12.60;99.90
7972;DHT22;4031;49.758;6.120;2023-09-08T04:02:54;12.60;99.90
7972;DHT22;4031;49.758;6.120;2023-09-08T04:05:20;12.50;99.90
7972;DHT22;4031;49.758;6.120;2023-09-08T04:07:46;12.50;99.90
7972;DHT22;4031;49.758;6.120;2023-09-08T04:10:12;12.50;99.90
7972;DHT22;4031;49.758;6.120;2023-09-08T04:12:41;12.50;99.90
7972;DHT22;4031;49.758;6.120;2023-09-08T04:15:08;12.50;99.90
7972;DHT22;4031;49.758;6.120;2023-09-08T04:17:34;12.50;99.90
7972;DHT22;4031;49.758;6.120;2023-09-08T04:20:05;12.50;99.90
7972;DHT22;4031;49.758;6.120;2023-09-08T04:22:32;12.50;99.90
7972;DHT22;4031;49.758;6.120;2023-09-08T04:24:58;12.50;99.90
7972;DHT22;4031;49.758;6.120;2023-09-08T04:27:24;12.50;99.90
7972;DHT22;4031;49.758;6.120;2023-09-08T04:29:49;12.50;99.90
7972;DHT22;4031;49.758;6.120;2023-09-08T04:32:15;12.50;99.90
7972;DHT22;4031;49.758;6.120;2023-09-08T04:34:41;12.40;99.90
7972;DHT22;4031;49.758;6.120;2023-09-08T04:37:08;12.40;99.90
7972;DHT22;4031;49.758;6.120;2023-09-08T04:39:34;12.40;99.90
7972;DHT22;4031;49.758;6.120;2023-09-08T04:42:01;12.40;99.90
7972;DHT22;4031;49.758;6.120;2023-09-08T04:44:26;12.40;99.90
7972;DHT22;4031;49.758;6.120;2023-09-08T04:46:53;12.40;99.90
7972;DHT22;4031;49.758;6.120;2023-09-08T04:49:18;12.40;99.90
7972;DHT22;4031;49.758;6.120;2023-09-08T04:51:44;12.40;99.90
7972;DHT22;4031;49.758;6.120;2023-09-08T04:54:10;12.40;99.90
7972;DHT22;4031;49.758;6.120;2023-09-08T04:56:37;12.40;99.90
7972;DHT22;4031;49.758;6.120;2023-09-08T04:59:04;12.50;99.90
7972;DHT22;4031;49.758;6.120;2023-09-08T05:01:29;12.50;99.90
7972;DHT22;4031;49.758;6.120;2023-09-08T05:03:58;12.50;99.90
7972;DHT22;4031;49.758;6.120;2023-09-08T05:06:25;12.50;99.90
7972;DHT22;4031;49.758;6.120;2023-09-08T05:08:51;12.60;99.90
7972;DHT22;4031;49.758;6.120;2023-09-08T05:11:16;12.70;99.90
7972;DHT22;4031;49.758;6.120;2023-09-08T05:13:44;12.60;99.90
7972;DHT22;4031;49.758;6.120;2023-09-08T05:16:11;12.70;99.90
7972;DHT22;4031;49.758;6.120;2023-09-08T05:18:38;12.70;99.90
7972;DHT22;4031;49.758;6.120;2023-09-08T05:21:05;12.70;99.90
7972;DHT22;4031;49.758;6.120;2023-09-08T05:23:31;12.70;99.90
7972;DHT22;4031;49.758;6.120;2023-09-08T05:25:56;12.80;99.90
7972;DHT22;4031;49.758;6.120;2023-09-08T05:28:22;12.80;99.90
7972;DHT22;4031;49.758;6.120;2023-09-08T05:30:51;12.90;99.90
7972;DHT22;4031;49.758;6.120;2023-09-08T05:33:17;12.90;99.90
7972;DHT22;4031;49.758;6.120;2023-09-08T05:35:43;12.90;99.90
7972;DHT22;4031;49.758;6.120;2023-09-08T05:38:09;12.90;99.90
7972;DHT22;4031;49.758;6.120;2023-09-08T05:40:35;13.00;99.90
7972;DHT22;4031;49.758;6.120;2023-09-08T05:43:01;13.00;99.90
7972;DHT22;4031;49.758;6.120;2023-09-08T05:45:27;13.10;99.90
7972;DHT22;4031;49.758;6.120;2023-09-08T05:47:53;13.10;99.90
7972;DHT22;4031;49.758;6.120;2023-09-08T05:50:19;13.20;99.90
7972;DHT22;4031;49.758;6.120;2023-09-08T05:52:44;13.20;99.90
7972;DHT22;4031;49.758;6.120;2023-09-08T05:55:10;13.20;99.90
7972;DHT22;4031;49.758;6.120;2023-09-08T05:57:36;13.20;99.90
7972;DHT22;4031;49.758;6.120;2023-09-08T06:00:06;13.20;99.90
7972;DHT22;4031;49.758;6.120;2023-09-08T06:02:32;13.20;99.90
7972;DHT22;4031;49.758;6.120;2023-09-08T06:04:58;13.30;99.90
7972;DHT22;4031;49.758;6.120;2023-09-08T06:07:23;13.30;99.90
7972;DHT22;4031;49.758;6.120;2023-09-08T06:09:49;13.30;99.90
7972;DHT22;4031;49.758;6.120;2023-09-08T06:12:15;13.40;99.90
7972;DHT22;4031;49.758;6.120;2023-09-08T06:14:40;13.50;99.90
7972;DHT22;4031;49.758;6.120;2023-09-08T06:17:06;13.60;99.90
7972;DHT22;4031;49.758;6.120;2023-09-08T06:19:32;13.70;99.90
7972;DHT22;4031;49.758;6.120;2023-09-08T06:21:57;13.90;99.90
7972;DHT22;4031;49.758;6.120;2023-09-08T06:24:23;13.90;99.90
7972;DHT22;4031;49.758;6.120;2023-09-08T06:26:49;14.00;99.90
7972;DHT22;4031;49.758;6.120;2023-09-08T06:29:15;14.10;99.90
7972;DHT22;4031;49.758;6.120;2023-09-08T06:31:41;14.30;99.90
7972;DHT22;4031;49.758;6.120;2023-09-08T06:34:07;14.50;99.90
7972;DHT22;4031;49.758;6.120;2023-09-08T06:36:32;14.90;99.90
7972;DHT22;4031;49.758;6.120;2023-09-08T06:38:59;15.30;99.90
7972;DHT22;4031;49.758;6.120;2023-09-08T06:41:25;15.80;99.90
7972;DHT22;4031;49.758;6.120;2023-09-08T06:43:52;16.50;99.90
7972;DHT22;4031;49.758;6.120;2023-09-08T06:46:18;17.20;99.90
7972;DHT22;4031;49.758;6.120;2023-09-08T06:48:44;17.80;99.90
7972;DHT22;4031;49.758;6.120;2023-09-08T06:51:10;18.40;99.90
7972;DHT22;4031;49.758;6.120;2023-09-08T06:53:36;19.00;99.90
7972;DHT22;4031;49.758;6.120;2023-09-08T06:56:02;19.40;99.90
7972;DHT22;4031;49.758;6.120;2023-09-08T06:58:27;20.10;99.90
7972;DHT22;4031;49.758;6.120;2023-09-08T07:00:53;20.70;99.90
7972;DHT22;4031;49.758;6.120;2023-09-08T07:03:20;21.30;99.90
7972;DHT22;4031;49.758;6.120;2023-09-08T07:05:50;21.70;99.90
7972;DHT22;4031;49.758;6.120;2023-09-08T07:08:16;22.30;99.90
7972;DHT22;4031;49.758;6.120;2023-09-08T07:10:43;22.60;99.90
7972;DHT22;4031;49.758;6.120;2023-09-08T07:13:09;23.20;99.90
7972;DHT22;4031;49.758;6.120;2023-09-08T07:15:35;23.60;99.90
7972;DHT22;4031;49.758;6.120;2023-09-08T07:18:00;24.00;99.90
7972;DHT22;4031;49.758;6.120;2023-09-08T07:20:26;24.20;99.90
7972;DHT22;4031;49.758;6.120;2023-09-08T07:22:52;24.60;99.90
7972;DHT22;4031;49.758;6.120;2023-09-08T07:25:17;25.30;99.90
7972;DHT22;4031;49.758;6.120;2023-09-08T07:27:43;25.60;99.90
7972;DHT22;4031;49.758;6.120;2023-09-08T07:30:09;25.90;99.90
7972;DHT22;4031;49.758;6.120;2023-09-08T07:32:35;26.10;99.90
7972;DHT22;4031;49.758;6.120;2023-09-08T07:35:01;25.80;99.90
7972;DHT22;4031;49.758;6.120;2023-09-08T07:37:26;25.40;99.90
7972;DHT22;4031;49.758;6.120;2023-09-08T07:39:52;25.10;99.90
7972;DHT22;4031;49.758;6.120;2023-09-08T07:42:18;25.10;99.90
7972;DHT22;4031;49.758;6.120;2023-09-08T07:44:45;25.10;99.90
7972;DHT22;4031;49.758;6.120;2023-09-08T07:47:11;24.80;99.90
7972;DHT22;4031;49.758;6.120;2023-09-08T07:49:36;24.50;99.90
7972;DHT22;4031;49.758;6.120;2023-09-08T07:52:02;24.30;99.90
7972;DHT22;4031;49.758;6.120;2023-09-08T07:54:29;23.90;99.90
7972;DHT22;4031;49.758;6.120;2023-09-08T07:56:55;23.50;99.90
7972;DHT22;4031;49.758;6.120;2023-09-08T07:59:21;23.30;99.90
7972;DHT22;4031;49.758;6.120;2023-09-08T08:01:47;23.20;99.90
7972;DHT22;4031;49.758;6.120;2023-09-08T08:04:12;23.30;99.90
7972;DHT22;4031;49.758;6.120;2023-09-08T08:06:38;23.40;99.90
7972;DHT22;4031;49.758;6.120;2023-09-08T08:09:04;23.30;99.90
7972;DHT22;4031;49.758;6.120;2023-09-08T08:11:30;23.50;99.90
7972;DHT22;4031;49.758;6.120;2023-09-08T08:13:55;23.80;99.90
7972;DHT22;4031;49.758;6.120;2023-09-08T08:16:22;24.30;99.90
7972;DHT22;4031;49.758;6.120;2023-09-08T08:18:48;25.10;99.90
7972;DHT22;4031;49.758;6.120;2023-09-08T08:21:14;25.80;99.90
7972;DHT22;4031;49.758;6.120;2023-09-08T08:23:40;26.40;99.90
7972;DHT22;4031;49.758;6.120;2023-09-08T08:26:06;27.20;99.90
7972;DHT22;4031;49.758;6.120;2023-09-08T08:28:32;27.80;99.90
7972;DHT22;4031;49.758;6.120;2023-09-08T08:30:58;28.40;99.90
7972;DHT22;4031;49.758;6.120;2023-09-08T08:33:23;29.30;99.90
7972;DHT22;4031;49.758;6.120;2023-09-08T08:35:51;30.00;99.90
7972;DHT22;4031;49.758;6.120;2023-09-08T08:38:18;30.50;99.90
7972;DHT22;4031;49.758;6.120;2023-09-08T08:40:44;30.90;99.90
7972;DHT22;4031;49.758;6.120;2023-09-08T08:43:10;31.20;99.90
7972;DHT22;4031;49.758;6.120;2023-09-08T08:45:37;31.80;99.90
7972;DHT22;4031;49.758;6.120;2023-09-08T08:48:07;32.70;99.90
7972;DHT22;4031;49.758;6.120;2023-09-08T08:50:35;32.70;99.90
7972;DHT22;4031;49.758;6.120;2023-09-08T08:53:01;33.00;99.90
7972;DHT22;4031;49.758;6.120;2023-09-08T08:55:30;33.30;99.90
7972;DHT22;4031;49.758;6.120;2023-09-08T08:58:03;33.30;99.90
7972;DHT22;4031;49.758;6.120;2023-09-08T09:00:29;33.50;99.90
7972;DHT22;4031;49.758;6.120;2023-09-08T09:02:55;34.10;99.90
7972;DHT22;4031;49.758;6.120;2023-09-08T09:05:23;34.60;99.90
7972;DHT22;4031;49.758;6.120;2023-09-08T09:07:50;35.10;99.90
7972;DHT22;4031;49.758;6.120;2023-09-08T09:10:16;35.40;99.90
7972;DHT22;4031;49.758;6.120;2023-09-08T09:12:42;35.50;99.90
7972;DHT22;4031;49.758;6.120;2023-09-08T09:15:08;35.20;99.90
7972;DHT22;4031;49.758;6.120;2023-09-08T09:17:35;35.40;99.90
7972;DHT22;4031;49.758;6.120;2023-09-08T09:20:18;35.10;99.90
7972;DHT22;4031;49.758;6.120;2023-09-08T09:22:46;35.50;99.90
7972;DHT22;4031;49.758;6.120;2023-09-08T09:25:27;35.60;99.90
7972;DHT22;4031;49.758;6.120;2023-09-08T09:27:57;35.80;99.90
7972;DHT22;4031;49.758;6.120;2023-09-08T09:30:28;35.80;99.90
7972;DHT22;4031;49.758;6.120;2023-09-08T09:33:12;36.20;99.90
7972;DHT22;4031;49.758;6.120;2023-09-08T09:35:45;36.20;99.90
7972;DHT22;4031;49.758;6.120;2023-09-08T09:38:15;36.30;99.90
7972;DHT22;4031;49.758;6.120;2023-09-08T09:40:44;36.30;99.90
7972;DHT22;4031;49.758;6.120;2023-09-08T09:43:11;36.30;99.90
7972;DHT22;4031;49.758;6.120;2023-09-08T09:45:40;36.40;99.90
7972;DHT22;4031;49.758;6.120;2023-09-08T09:48:08;36.60;98.20
7972;DHT22;4031;49.758;6.120;2023-09-08T09:50:37;36.60;98.00
7972;DHT22;4031;49.758;6.120;2023-09-08T09:55:39;36.60;97.00
7972;DHT22;4031;49.758;6.120;2023-09-08T09:58:06;36.60;97.50
7972;DHT22;4031;49.758;6.120;2023-09-08T10:00:34;36.80;96.10
7972;DHT22;4031;49.758;6.120;2023-09-08T10:03:01;37.10;95.10
7972;DHT22;4031;49.758;6.120;2023-09-08T10:05:27;37.40;95.70
7972;DHT22;4031;49.758;6.120;2023-09-08T10:07:53;37.50;92.80
7972;DHT22;4031;49.758;6.120;2023-09-08T10:10:20;37.60;92.40
7972;DHT22;4031;49.758;6.120;2023-09-08T10:12:55;37.50;92.20
7972;DHT22;4031;49.758;6.120;2023-09-08T10:15:24;37.40;92.50
7972;DHT22;4031;49.758;6.120;2023-09-08T10:17:54;37.40;92.70
7972;DHT22;4031;49.758;6.120;2023-09-08T10:20:24;37.40;92.90
7972;DHT22;4031;49.758;6.120;2023-09-08T10:22:56;37.60;91.00
7972;DHT22;4031;49.758;6.120;2023-09-08T10:25:29;37.60;90.60
7972;DHT22;4031;49.758;6.120;2023-09-08T10:27:57;37.80;90.30
7972;DHT22;4031;49.758;6.120;2023-09-08T10:30:23;38.00;89.90
7972;DHT22;4031;49.758;6.120;2023-09-08T10:32:50;37.80;90.50
7972;DHT22;4031;49.758;6.120;2023-09-08T10:35:16;37.80;90.00
7972;DHT22;4031;49.758;6.120;2023-09-08T10:37:44;37.80;88.80
7972;DHT22;4031;49.758;6.120;2023-09-08T10:40:23;37.70;87.60
7972;DHT22;4031;49.758;6.120;2023-09-08T10:43:12;37.40;89.70
7972;DHT22;4031;49.758;6.120;2023-09-08T10:45:39;37.50;88.40
7972;DHT22;4031;49.758;6.120;2023-09-08T10:48:07;37.80;90.70
7972;DHT22;4031;49.758;6.120;2023-09-08T10:50:34;37.90;89.10
7972;DHT22;4031;49.758;6.120;2023-09-08T10:55:42;37.40;90.10
7972;DHT22;4031;49.758;6.120;2023-09-08T11:01:04;37.40;90.10
7972;DHT22;4031;49.758;6.120;2023-09-08T11:06:06;37.30;87.80
7972;DHT22;4031;49.758;6.120;2023-09-08T11:08:33;37.20;88.50
7972;DHT22;4031;49.758;6.120;2023-09-08T11:11:01;36.70;88.70
7972;DHT22;4031;49.758;6.120;2023-09-08T11:13:27;36.90;89.30
7972;DHT22;4031;49.758;6.120;2023-09-08T11:15:56;36.80;88.40
7972;DHT22;4031;49.758;6.120;2023-09-08T11:18:31;36.80;87.30
7972;DHT22;4031;49.758;6.120;2023-09-08T11:21:00;36.80;88.60
7972;DHT22;4031;49.758;6.120;2023-09-08T11:23:30;36.70;90.20
7972;DHT22;4031;49.758;6.120;2023-09-08T11:25:56;36.40;92.00
7972;DHT22;4031;49.758;6.120;2023-09-08T11:28:23;36.30;90.00
7972;DHT22;4031;49.758;6.120;2023-09-08T11:30:49;36.40;90.20
7972;DHT22;4031;49.758;6.120;2023-09-08T11:33:19;36.20;88.20
7972;DHT22;4031;49.758;6.120;2023-09-08T11:35:53;36.40;87.50
7972;DHT22;4031;49.758;6.120;2023-09-08T11:38:29;36.40;86.40
7972;DHT22;4031;49.758;6.120;2023-09-08T11:40:57;36.10;90.50
7972;DHT22;4031;49.758;6.120;2023-09-08T11:43:23;35.90;90.00
7972;DHT22;4031;49.758;6.120;2023-09-08T11:45:50;36.00;91.90
7972;DHT22;4031;49.758;6.120;2023-09-08T11:48:16;36.00;92.10
7972;DHT22;4031;49.758;6.120;2023-09-08T11:50:43;35.90;90.10
7972;DHT22;4031;49.758;6.120;2023-09-08T11:53:09;35.80;90.60
7972;DHT22;4031;49.758;6.120;2023-09-08T11:55:35;35.60;89.00
7972;DHT22;4031;49.758;6.120;2023-09-08T11:58:05;35.50;92.20
7972;DHT22;4031;49.758;6.120;2023-09-08T12:00:31;35.40;91.50
7972;DHT22;4031;49.758;6.120;2023-09-08T12:03:10;35.50;90.10
7972;DHT22;4031;49.758;6.120;2023-09-08T12:05:36;35.20;90.90
7972;DHT22;4031;49.758;6.120;2023-09-08T12:08:04;35.10;91.20
7972;DHT22;4031;49.758;6.120;2023-09-08T12:10:40;35.10;90.10
7972;DHT22;4031;49.758;6.120;2023-09-08T12:13:07;35.20;90.30
7972;DHT22;4031;49.758;6.120;2023-09-08T12:15:36;35.30;90.70
7972;DHT22;4031;49.758;6.120;2023-09-08T12:18:05;35.40;90.20
7972;DHT22;4031;49.758;6.120;2023-09-08T12:20:34;35.30;91.50
7972;DHT22;4031;49.758;6.120;2023-09-08T12:23:02;35.20;91.30
7972;DHT22;4031;49.758;6.120;2023-09-08T12:25:29;35.10;90.10
7972;DHT22;4031;49.758;6.120;2023-09-08T12:27:57;35.00;90.20
7972;DHT22;4031;49.758;6.120;2023-09-08T12:30:24;35.10;87.70
7972;DHT22;4031;49.758;6.120;2023-09-08T12:32:56;35.20;89.20
7972;DHT22;4031;49.758;6.120;2023-09-08T12:35:23;35.10;90.20
7972;DHT22;4031;49.758;6.120;2023-09-08T12:38:01;35.20;90.10
7972;DHT22;4031;49.758;6.120;2023-09-08T12:40:34;35.40;90.80
7972;DHT22;4031;49.758;6.120;2023-09-08T12:43:02;35.40;89.50
7972;DHT22;4031;49.758;6.120;2023-09-08T12:45:28;35.20;90.10
7972;DHT22;4031;49.758;6.120;2023-09-08T12:47:57;35.30;90.90
7972;DHT22;4031;49.758;6.120;2023-09-08T12:50:24;35.40;88.20
7972;DHT22;4031;49.758;6.120;2023-09-08T12:52:50;35.40;90.40
7972;DHT22;4031;49.758;6.120;2023-09-08T12:55:16;35.60;90.90
7972;DHT22;4031;49.758;6.120;2023-09-08T12:57:42;35.70;87.70
7972;DHT22;4031;49.758;6.120;2023-09-08T13:00:08;35.90;89.00
7972;DHT22;4031;49.758;6.120;2023-09-08T13:02:34;35.80;87.30
7972;DHT22;4031;49.758;6.120;2023-09-08T13:05:03;35.70;88.40
7972;DHT22;4031;49.758;6.120;2023-09-08T13:07:29;35.80;87.40
7972;DHT22;4031;49.758;6.120;2023-09-08T13:09:55;35.80;84.90
7972;DHT22;4031;49.758;6.120;2023-09-08T13:12:20;35.90;85.00
7972;DHT22;4031;49.758;6.120;2023-09-08T13:14:46;35.70;84.30
7972;DHT22;4031;49.758;6.120;2023-09-08T13:17:13;35.70;84.70
7972;DHT22;4031;49.758;6.120;2023-09-08T13:19:40;35.90;87.50
7972;DHT22;4031;49.758;6.120;2023-09-08T13:22:07;35.90;82.40
7972;DHT22;4031;49.758;6.120;2023-09-08T13:24:33;35.80;83.80
7972;DHT22;4031;49.758;6.120;2023-09-08T13:27:01;36.10;80.70
7972;DHT22;4031;49.758;6.120;2023-09-08T13:29:27;36.30;82.90
7972;DHT22;4031;49.758;6.120;2023-09-08T13:31:53;36.60;80.00
7972;DHT22;4031;49.758;6.120;2023-09-08T13:34:23;37.00;78.90
7972;DHT22;4031;49.758;6.120;2023-09-08T13:36:49;37.00;78.10
7972;DHT22;4031;49.758;6.120;2023-09-08T13:39:15;36.90;78.80
7972;DHT22;4031;49.758;6.120;2023-09-08T13:44:19;37.30;77.00
7972;DHT22;4031;49.758;6.120;2023-09-08T13:46:47;37.30;76.90
7972;DHT22;4031;49.758;6.120;2023-09-08T13:49:14;37.10;74.40
7972;DHT22;4031;49.758;6.120;2023-09-08T13:51:40;37.30;75.30
7972;DHT22;4031;49.758;6.120;2023-09-08T13:54:06;37.60;75.10
7972;DHT22;4031;49.758;6.120;2023-09-08T13:56:33;37.60;71.80
7972;DHT22;4031;49.758;6.120;2023-09-08T13:58:59;37.70;72.60
7972;DHT22;4031;49.758;6.120;2023-09-08T14:01:25;37.80;72.50
7972;DHT22;4031;49.758;6.120;2023-09-08T14:03:53;37.90;71.80
7972;DHT22;4031;49.758;6.120;2023-09-08T14:06:19;37.40;73.30
7972;DHT22;4031;49.758;6.120;2023-09-08T14:08:45;37.20;70.40
7972;DHT22;4031;49.758;6.120;2023-09-08T14:11:11;37.00;74.90
7972;DHT22;4031;49.758;6.120;2023-09-08T14:13:38;36.50;70.30
7972;DHT22;4031;49.758;6.120;2023-09-08T14:16:03;36.30;74.40
7972;DHT22;4031;49.758;6.120;2023-09-08T14:18:29;36.50;74.40
7972;DHT22;4031;49.758;6.120;2023-09-08T14:20:55;36.60;73.60
7972;DHT22;4031;49.758;6.120;2023-09-08T14:23:21;36.60;72.90
7972;DHT22;4031;49.758;6.120;2023-09-08T14:25:47;37.10;71.90
7972;DHT22;4031;49.758;6.120;2023-09-08T14:28:13;37.20;71.20
7972;DHT22;4031;49.758;6.120;2023-09-08T14:30:38;37.20;71.50
7972;DHT22;4031;49.758;6.120;2023-09-08T14:33:06;37.30;74.20
7972;DHT22;4031;49.758;6.120;2023-09-08T14:35:32;37.30;76.50
7972;DHT22;4031;49.758;6.120;2023-09-08T14:37:58;37.00;71.60
7972;DHT22;4031;49.758;6.120;2023-09-08T14:40:24;36.70;74.70
7972;DHT22;4031;49.758;6.120;2023-09-08T14:42:50;36.60;72.30
7972;DHT22;4031;49.758;6.120;2023-09-08T14:45:16;36.70;73.10
7972;DHT22;4031;49.758;6.120;2023-09-08T14:47:41;36.50;73.80
7972;DHT22;4031;49.758;6.120;2023-09-08T14:50:07;36.70;75.90
7972;DHT22;4031;49.758;6.120;2023-09-08T14:52:33;36.50;77.00
7972;DHT22;4031;49.758;6.120;2023-09-08T14:54:59;36.00;77.90
7972;DHT22;4031;49.758;6.120;2023-09-08T14:57:25;35.80;77.80
7972;DHT22;4031;49.758;6.120;2023-09-08T14:59:51;35.80;78.30
7972;DHT22;4031;49.758;6.120;2023-09-08T15:02:19;35.90;78.00
7972;DHT22;4031;49.758;6.120;2023-09-08T15:04:45;36.00;75.00
7972;DHT22;4031;49.758;6.120;2023-09-08T15:07:11;35.90;79.20
7972;DHT22;4031;49.758;6.120;2023-09-08T15:09:36;36.20;76.00
7972;DHT22;4031;49.758;6.120;2023-09-08T15:12:02;36.20;79.30
7972;DHT22;4031;49.758;6.120;2023-09-08T15:14:28;35.90;75.60
7972;DHT22;4031;49.758;6.120;2023-09-08T15:16:54;36.00;75.40
7972;DHT22;4031;49.758;6.120;2023-09-08T15:19:19;36.00;76.00
7972;DHT22;4031;49.758;6.120;2023-09-08T15:21:45;35.60;77.00
7972;DHT22;4031;49.758;6.120;2023-09-08T15:24:11;35.30;76.20
7972;DHT22;4031;49.758;6.120;2023-09-08T15:26:36;35.20;78.40
7972;DHT22;4031;49.758;6.120;2023-09-08T15:29:02;35.30;78.00
7972;DHT22;4031;49.758;6.120;2023-09-08T15:31:29;35.50;80.20
7972;DHT22;4031;49.758;6.120;2023-09-08T15:33:55;35.60;78.20
7972;DHT22;4031;49.758;6.120;2023-09-08T15:36:20;35.70;80.40
7972;DHT22;4031;49.758;6.120;2023-09-08T15:38:46;35.60;77.20
7972;DHT22;4031;49.758;6.120;2023-09-08T15:41:16;35.50;79.40
7972;DHT22;4031;49.758;6.120;2023-09-08T15:43:45;34.80;82.10
7972;DHT22;4031;49.758;6.120;2023-09-08T15:46:12;34.10;83.30
7972;DHT22;4031;49.758;6.120;2023-09-08T15:48:38;33.40;88.10
7972;DHT22;4031;49.758;6.120;2023-09-08T15:51:04;32.80;90.90
7972;DHT22;4031;49.758;6.120;2023-09-08T15:53:30;32.30;91.90
7972;DHT22;4031;49.758;6.120;2023-09-08T15:55:57;31.90;92.00
7972;DHT22;4031;49.758;6.120;2023-09-08T15:58:23;31.50;91.20
7972;DHT22;4031;49.758;6.120;2023-09-08T16:00:49;31.10;95.40
7972;DHT22;4031;49.758;6.120;2023-09-08T16:03:14;30.90;99.90
7972;DHT22;4031;49.758;6.120;2023-09-08T16:05:40;30.70;99.90
7972;DHT22;4031;49.758;6.120;2023-09-08T16:08:06;30.50;99.90
7972;DHT22;4031;49.758;6.120;2023-09-08T16:10:32;30.20;99.90
7972;DHT22;4031;49.758;6.120;2023-09-08T16:12:57;30.00;99.90
7972;DHT22;4031;49.758;6.120;2023-09-08T16:15:27;29.80;99.90
7972;DHT22;4031;49.758;6.120;2023-09-08T16:17:53;29.70;99.90